createdAt,value
2017-12-12T00:00:46.744Z,116.20
2017-12-12T00:01:47.695Z,117.10
2017-12-12T00:02:46.764Z,122.10
2017-12-12T00:03:46.781Z,120.60
2017-12-12T00:04:46.804Z,125.00
2017-12-12T00:05:46.739Z,120.70
2017-12-12T00:06:46.833Z,124.00
2017-12-12T00:07:46.743Z,126.00
2017-12-12T00:08:47.604Z,120.30
2017-12-12T00:09:47.730Z,128.90
2017-12-12T00:11:12.265Z,132.80
2017-12-12T00:12:13.255Z,137.20
2017-12-12T00:13:12.401Z,125.50
2017-12-12T00:14:12.536Z,118.10
2017-12-12T00:15:36.674Z,120.90
2017-12-12T00:16:37.601Z,131.30
2017-12-12T00:17:37.492Z,125.90
2017-12-12T00:18:37.599Z,130.00
2017-12-12T00:19:37.618Z,125.30
2017-12-12T00:20:37.667Z,117.50
2017-12-12T00:21:37.690Z,113.40
2017-12-12T00:22:36.731Z,125.20
2017-12-12T00:23:36.854Z,123.50
2017-12-12T00:24:36.976Z,111.20
2017-12-12T00:25:37.092Z,110.30
2017-12-12T00:26:37.352Z,111.10
2017-12-12T00:27:37.218Z,111.60
2017-12-12T00:28:37.174Z,106.70
2017-12-12T00:29:37.146Z,116.10
2017-12-12T00:30:37.137Z,107.80
2017-12-12T00:31:37.086Z,112.70
2017-12-12T00:32:37.103Z,114.00
2017-12-12T00:33:37.261Z,118.40
2017-12-12T00:34:37.319Z,125.40
2017-12-12T00:35:37.285Z,125.20
2017-12-12T00:36:37.398Z,113.20
2017-12-12T00:37:37.514Z,117.80
2017-12-12T00:38:37.550Z,119.50
2017-12-12T00:39:37.462Z,110.60
2017-12-12T00:40:36.687Z,116.40
2017-12-12T00:41:36.694Z,111.30
2017-12-12T00:42:38.070Z,109.40
2017-12-12T00:43:37.102Z,106.50
2017-12-12T00:44:37.227Z,112.70
2017-12-12T00:45:37.386Z,115.70
2017-12-12T00:46:37.598Z,113.60
2017-12-12T00:47:37.544Z,107.90
2017-12-12T00:48:36.600Z,113.00
2017-12-12T00:49:37.516Z,104.60
2017-12-12T00:50:38.170Z,100.40
2017-12-12T00:51:37.155Z,107.00
2017-12-12T00:52:37.314Z,99.40
2017-12-12T00:53:37.874Z,103.30
2017-12-12T00:54:36.867Z,99.00
2017-12-12T00:55:36.810Z,103.60
2017-12-12T00:56:36.923Z,104.20
2017-12-12T00:57:36.950Z,103.70
2017-12-12T00:58:37.126Z,92.20
2017-12-12T00:59:37.034Z,85.30
2017-12-12T01:00:36.984Z,86.90
2017-12-12T01:01:37.122Z,84.10
2017-12-12T01:02:37.229Z,91.90
2017-12-12T01:03:37.322Z,94.30
2017-12-12T01:04:37.187Z,80.60
2017-12-12T01:05:37.192Z,84.70
2017-12-12T01:06:37.203Z,86.00
2017-12-12T01:07:37.318Z,83.20
2017-12-12T01:08:37.505Z,84.40
2017-12-12T01:09:37.585Z,78.40
2017-12-12T01:10:37.522Z,79.60
2017-12-12T01:11:37.485Z,77.10
2017-12-12T01:12:37.377Z,77.00
2017-12-12T01:13:37.665Z,74.90
2017-12-12T01:14:37.660Z,74.60
2017-12-12T01:15:36.845Z,74.00
2017-12-12T01:16:36.698Z,76.40
2017-12-12T01:17:37.525Z,82.20
2017-12-12T01:18:36.699Z,75.70
2017-12-12T01:19:36.706Z,77.90
2017-12-12T01:20:36.758Z,72.40
2017-12-12T01:21:36.964Z,77.40
2017-12-12T01:22:36.894Z,72.20
2017-12-12T01:23:36.806Z,79.70
2017-12-12T01:24:36.812Z,77.80
2017-12-12T01:25:36.884Z,67.40
2017-12-12T01:26:36.966Z,77.40
2017-12-12T01:27:37.022Z,71.40
2017-12-12T01:28:36.889Z,75.10
2017-12-12T01:29:36.909Z,74.40
2017-12-12T01:30:36.904Z,73.10
2017-12-12T01:32:02.783Z,69.30
2017-12-12T01:33:03.674Z,70.60
2017-12-12T01:34:03.588Z,73.90
2017-12-12T01:35:03.707Z,71.20
2017-12-12T01:36:03.704Z,67.60
2017-12-12T01:37:03.658Z,74.40
2017-12-12T01:38:03.606Z,73.70
2017-12-12T01:39:03.617Z,75.50
2017-12-12T01:40:03.660Z,71.60
2017-12-12T01:41:03.710Z,71.30
2017-12-12T01:42:03.702Z,74.20
2017-12-12T01:43:03.629Z,68.10
2017-12-12T01:44:03.816Z,70.60
2017-12-12T01:45:02.799Z,69.80
2017-12-12T01:46:02.919Z,68.60
2017-12-12T01:47:02.794Z,72.50
2017-12-12T01:48:03.723Z,70.30
2017-12-12T01:49:02.882Z,72.00
2017-12-12T01:50:03.068Z,76.00
2017-12-12T01:51:02.887Z,71.30
2017-12-12T01:52:02.842Z,72.60
2017-12-12T01:53:26.629Z,72.00
2017-12-12T01:54:27.546Z,65.30
2017-12-12T01:55:27.531Z,69.40
2017-12-12T01:56:27.451Z,69.70
2017-12-12T01:57:27.462Z,65.90
2017-12-12T01:58:27.600Z,70.60
2017-12-12T01:59:27.542Z,66.50
2017-12-12T02:00:27.479Z,71.00
2017-12-12T02:01:26.693Z,64.50
2017-12-12T02:02:26.733Z,68.30
2017-12-12T02:03:26.898Z,70.30
2017-12-12T02:04:26.826Z,73.20
2017-12-12T02:05:51.577Z,70.20
2017-12-12T02:06:51.811Z,69.70
2017-12-12T02:07:51.773Z,74.40
2017-12-12T02:08:51.901Z,73.50
2017-12-12T02:10:16.770Z,72.90
2017-12-12T02:11:16.693Z,74.70
2017-12-12T02:12:17.738Z,66.80
2017-12-12T02:13:17.748Z,73.80
2017-12-12T02:14:17.744Z,68.80
2017-12-12T02:15:18.805Z,74.70
2017-12-12T02:16:16.963Z,70.80
2017-12-12T02:17:16.951Z,76.60
2017-12-12T02:18:16.936Z,74.90
2017-12-12T02:19:16.899Z,69.90
2017-12-12T02:20:16.857Z,74.50
2017-12-12T02:21:17.710Z,72.10
2017-12-12T02:22:17.561Z,72.80
2017-12-12T02:23:17.721Z,66.00
2017-12-12T02:24:42.636Z,76.40
2017-12-12T02:25:42.606Z,68.10
2017-12-12T02:26:42.626Z,72.10
2017-12-12T02:27:42.713Z,71.00
2017-12-12T02:28:42.876Z,79.90
2017-12-12T02:29:42.807Z,70.90
2017-12-12T02:30:43.854Z,68.90
2017-12-12T02:31:42.924Z,70.30
2017-12-12T02:32:43.008Z,76.90
2017-12-12T02:33:42.983Z,71.50
2017-12-12T02:34:42.849Z,70.50
2017-12-12T02:35:42.885Z,69.40
2017-12-12T02:36:42.873Z,68.20
2017-12-12T02:37:42.765Z,70.70
2017-12-12T02:38:42.861Z,71.80
2017-12-12T02:39:42.808Z,66.20
2017-12-12T02:40:42.970Z,70.20
2017-12-12T02:41:43.626Z,72.10
2017-12-12T02:42:43.518Z,72.20
2017-12-12T02:43:42.626Z,72.80
2017-12-12T02:44:42.597Z,72.30
2017-12-12T02:45:43.462Z,79.20
2017-12-12T02:46:43.498Z,76.40
2017-12-12T02:47:43.506Z,66.70
2017-12-12T02:48:42.716Z,77.90
2017-12-12T02:49:42.601Z,72.30
2017-12-12T02:50:43.504Z,74.60
2017-12-12T02:51:43.495Z,73.80
2017-12-12T02:52:42.571Z,75.70
2017-12-12T02:53:42.953Z,77.30
2017-12-12T02:54:42.877Z,65.90
2017-12-12T02:55:43.016Z,70.60
2017-12-12T02:56:42.917Z,68.70
2017-12-12T02:57:42.818Z,76.10
2017-12-12T02:58:42.957Z,73.20
2017-12-12T02:59:43.003Z,79.00
2017-12-12T03:00:43.080Z,72.90
2017-12-12T03:01:43.183Z,72.80
2017-12-12T03:02:43.213Z,68.30
2017-12-12T03:03:43.386Z,69.00
2017-12-12T03:04:43.300Z,67.00
2017-12-12T03:05:43.333Z,69.60
2017-12-12T03:06:43.231Z,68.00
2017-12-12T03:07:43.424Z,77.40
2017-12-12T03:08:42.631Z,69.90
2017-12-12T03:09:43.653Z,76.70
2017-12-12T03:10:42.568Z,71.70
2017-12-12T03:11:42.551Z,74.30
2017-12-12T03:12:43.629Z,80.70
2017-12-12T03:13:42.622Z,72.20
2017-12-12T03:14:42.713Z,67.40
2017-12-12T03:15:42.800Z,70.70
2017-12-12T03:16:42.854Z,74.30
2017-12-12T03:19:25.455Z,71.50
2017-12-12T03:20:26.342Z,69.80
2017-12-12T03:21:26.570Z,67.70
2017-12-12T03:22:25.486Z,64.10
2017-12-12T03:23:50.003Z,65.80
2017-12-12T03:24:50.007Z,67.50
2017-12-12T03:25:50.852Z,68.90
2017-12-12T03:26:51.192Z,63.00
2017-12-12T03:27:50.182Z,62.70
2017-12-12T03:28:50.160Z,60.50
2017-12-12T03:29:50.116Z,62.40
2017-12-12T03:30:50.086Z,67.60
2017-12-12T03:31:50.236Z,64.90
2017-12-12T03:32:50.086Z,70.40
2017-12-12T03:33:50.091Z,74.90
2017-12-12T03:34:50.967Z,64.20
2017-12-12T03:35:51.542Z,64.40
2017-12-12T03:36:50.675Z,70.60
2017-12-12T03:37:50.592Z,68.50
2017-12-12T03:38:50.574Z,69.50
2017-12-12T03:39:50.399Z,66.60
2017-12-12T03:40:50.253Z,68.60
2017-12-12T03:41:50.205Z,64.90
2017-12-12T03:42:50.094Z,71.00
2017-12-12T03:43:50.001Z,62.40
2017-12-12T03:44:50.918Z,66.10
2017-12-12T03:45:50.948Z,66.70
2017-12-12T03:46:50.929Z,61.50
2017-12-12T03:47:50.846Z,61.70
2017-12-12T03:48:50.930Z,62.00
2017-12-12T03:49:50.809Z,60.00
2017-12-12T03:50:50.660Z,64.00
2017-12-12T03:51:50.904Z,63.00
2017-12-12T03:52:51.519Z,60.50
2017-12-12T03:53:50.592Z,56.10
2017-12-12T03:54:50.458Z,58.80
2017-12-12T03:55:50.401Z,62.20
2017-12-12T03:56:50.347Z,58.90
2017-12-12T03:57:50.440Z,56.00
2017-12-12T03:58:50.390Z,62.30
2017-12-12T03:59:50.170Z,60.40
2017-12-12T04:00:50.075Z,57.50
2017-12-12T04:01:50.181Z,54.60
2017-12-12T04:02:50.063Z,107.00
2017-12-12T04:03:51.012Z,55.20
2017-12-12T04:04:51.022Z,53.00
2017-12-12T04:05:50.012Z,53.80
2017-12-12T04:06:51.273Z,50.70
2017-12-12T04:07:50.365Z,45.40
2017-12-12T04:08:50.299Z,51.30
2017-12-12T04:09:50.203Z,47.80
2017-12-12T04:10:50.165Z,46.30
2017-12-12T04:11:50.153Z,53.10
2017-12-12T04:12:50.211Z,52.00
2017-12-12T04:13:50.062Z,51.00
2017-12-12T04:14:50.146Z,47.30
2017-12-12T04:15:50.307Z,48.50
2017-12-12T04:16:50.227Z,47.90
2017-12-12T04:17:50.472Z,51.10
2017-12-12T04:18:50.453Z,153.40
2017-12-12T04:19:50.463Z,57.60
2017-12-12T04:21:19.153Z,53.00
2017-12-12T04:22:44.894Z,51.20
2017-12-12T04:23:46.304Z,51.10
2017-12-12T04:24:45.171Z,46.40
2017-12-12T04:25:45.111Z,57.60
2017-12-12T04:26:45.144Z,53.20
2017-12-12T04:27:45.225Z,52.50
2017-12-12T04:28:45.293Z,52.90
2017-12-12T04:29:45.634Z,61.20
2017-12-12T04:30:45.704Z,62.10
2017-12-12T04:31:45.817Z,59.90
2017-12-12T04:32:45.689Z,59.20
2017-12-12T04:33:45.777Z,60.20
2017-12-12T04:34:45.819Z,57.50
2017-12-12T04:35:45.867Z,57.90
2017-12-12T04:36:46.278Z,67.70
2017-12-12T04:37:45.299Z,52.70
2017-12-12T04:38:45.236Z,59.70
2017-12-12T04:39:45.378Z,61.20
2017-12-12T04:40:45.499Z,60.00
2017-12-12T04:41:45.350Z,55.70
2017-12-12T04:42:45.156Z,58.90
2017-12-12T04:43:45.257Z,59.10
2017-12-12T04:44:45.458Z,57.10
2017-12-12T04:45:45.378Z,58.20
2017-12-12T04:46:45.274Z,56.40
2017-12-12T04:47:45.198Z,63.10
2017-12-12T04:48:45.237Z,61.60
2017-12-12T04:49:45.202Z,54.40
2017-12-12T04:51:09.834Z,55.00
2017-12-12T04:52:09.860Z,52.60
2017-12-12T04:53:09.954Z,56.60
2017-12-12T04:54:10.092Z,58.60
2017-12-12T04:55:10.125Z,54.50
2017-12-12T04:56:10.091Z,53.90
2017-12-12T04:57:10.223Z,52.10
2017-12-12T04:58:10.297Z,58.70
2017-12-12T04:59:10.227Z,59.00
2017-12-12T05:00:10.372Z,55.10
2017-12-12T05:01:10.546Z,52.70
2017-12-12T05:02:10.527Z,56.00
2017-12-12T05:03:10.461Z,50.10
2017-12-12T05:04:10.366Z,52.20
2017-12-12T05:05:10.488Z,54.20
2017-12-12T05:06:10.453Z,52.70
2017-12-12T05:07:10.691Z,58.40
2017-12-12T05:08:09.774Z,55.50
2017-12-12T05:09:09.841Z,51.40
2017-12-12T05:10:35.103Z,59.20
2017-12-12T05:11:35.244Z,59.90
2017-12-12T05:12:35.466Z,57.50
2017-12-12T05:13:35.585Z,57.20
2017-12-12T05:14:35.867Z,63.90
2017-12-12T05:15:36.070Z,58.50
2017-12-12T05:16:35.312Z,63.20
2017-12-12T05:17:35.521Z,63.90
2017-12-12T05:18:35.499Z,62.50
2017-12-12T05:19:35.727Z,65.90
2017-12-12T05:20:35.827Z,65.60
2017-12-12T05:21:35.945Z,64.50
2017-12-12T05:22:35.207Z,68.40
2017-12-12T05:23:35.163Z,73.40
2017-12-12T05:24:35.116Z,68.40
2017-12-12T05:25:58.974Z,64.40
2017-12-12T05:26:59.934Z,65.30
2017-12-12T05:27:59.055Z,62.20
2017-12-12T05:28:59.075Z,63.60
2017-12-12T05:29:59.108Z,65.40
2017-12-12T05:30:59.142Z,59.30
2017-12-12T05:31:59.097Z,65.30
2017-12-12T05:32:58.998Z,62.90
2017-12-12T05:33:59.876Z,63.10
2017-12-12T05:34:59.704Z,65.20
2017-12-12T05:35:59.505Z,70.10
2017-12-12T05:36:59.523Z,63.40
2017-12-12T05:37:59.524Z,62.50
2017-12-12T05:38:59.438Z,57.90
2017-12-12T05:39:59.342Z,71.00
2017-12-12T05:40:59.389Z,71.90
2017-12-12T05:41:59.545Z,63.10
2017-12-12T05:42:59.408Z,65.50
2017-12-12T05:43:59.284Z,64.50
2017-12-12T05:44:59.342Z,55.90
2017-12-12T05:45:59.332Z,60.20
2017-12-12T05:46:59.246Z,59.20
2017-12-12T05:47:59.198Z,60.50
2017-12-12T05:48:59.231Z,58.40
2017-12-12T05:49:59.238Z,65.50
2017-12-12T05:50:59.255Z,52.90
2017-12-12T05:51:59.441Z,54.80
2017-12-12T05:52:59.432Z,57.40
2017-12-12T05:53:59.404Z,57.30
2017-12-12T05:54:59.416Z,57.60
2017-12-12T05:55:59.342Z,59.40
2017-12-12T05:56:59.346Z,62.30
2017-12-12T05:57:59.429Z,54.60
2017-12-12T05:58:59.335Z,55.80
2017-12-12T05:59:59.200Z,54.30
2017-12-12T06:00:59.233Z,56.70
2017-12-12T06:01:59.340Z,55.50
2017-12-12T06:02:59.341Z,55.20
2017-12-12T06:03:59.176Z,52.70
2017-12-12T06:04:59.275Z,55.20
2017-12-12T06:05:59.387Z,52.80
2017-12-12T06:06:59.279Z,57.00
2017-12-12T06:07:59.270Z,53.70
2017-12-12T06:08:59.191Z,54.00
2017-12-12T06:09:59.614Z,56.70
2017-12-12T06:10:59.664Z,57.90
2017-12-12T06:11:59.706Z,56.80
2017-12-12T06:12:59.627Z,57.60
2017-12-12T06:13:59.771Z,55.00
2017-12-12T06:14:59.830Z,55.40
2017-12-12T06:15:59.757Z,60.80
2017-12-12T06:16:59.818Z,52.80
2017-12-12T06:17:59.764Z,56.20
2017-12-12T06:18:59.820Z,55.60
2017-12-12T06:19:59.760Z,46.60
2017-12-12T06:20:59.936Z,45.60
2017-12-12T06:21:59.079Z,47.30
2017-12-12T06:22:59.278Z,41.60
2017-12-12T06:24:23.439Z,42.60
2017-12-12T06:25:23.498Z,45.40
2017-12-12T06:26:23.568Z,41.80
2017-12-12T06:27:23.689Z,49.70
2017-12-12T06:28:23.749Z,46.60
2017-12-12T06:30:13.588Z,43.10
2017-12-12T06:31:14.561Z,40.30
2017-12-12T06:32:13.701Z,40.40
2017-12-12T06:33:38.528Z,39.50
2017-12-12T06:34:38.657Z,40.90
2017-12-12T06:35:38.641Z,32.00
2017-12-12T06:36:38.746Z,36.00
2017-12-12T06:37:38.982Z,38.20
2017-12-12T06:38:38.926Z,41.40
2017-12-12T06:40:02.546Z,34.40
2017-12-12T06:41:03.609Z,34.70
2017-12-12T06:42:02.765Z,34.80
2017-12-12T06:43:02.883Z,29.50
2017-12-12T06:44:02.903Z,31.20
2017-12-12T06:45:02.924Z,37.20
2017-12-12T06:46:02.956Z,41.10
2017-12-12T06:47:02.910Z,38.00
2017-12-12T06:48:02.897Z,34.60
2017-12-12T06:49:02.799Z,35.80
2017-12-12T06:50:02.830Z,32.70
2017-12-12T06:51:02.867Z,37.00
2017-12-12T06:52:03.095Z,34.60
2017-12-12T06:53:03.368Z,24.80
2017-12-12T06:54:03.294Z,34.00
2017-12-12T06:55:03.242Z,31.80
2017-12-12T06:56:03.044Z,30.50
2017-12-12T06:57:03.073Z,31.20
2017-12-12T06:58:26.677Z,29.50
2017-12-12T06:59:27.552Z,32.60
2017-12-12T07:00:27.499Z,34.70
2017-12-12T07:01:26.658Z,37.80
2017-12-12T07:02:27.498Z,31.00
2017-12-12T07:03:27.491Z,34.30
2017-12-12T07:04:27.453Z,42.90
2017-12-12T07:05:27.271Z,31.20
2017-12-12T07:06:27.391Z,36.00
2017-12-12T07:07:27.475Z,40.00
2017-12-12T07:08:27.597Z,32.80
2017-12-12T07:09:26.708Z,36.70
2017-12-12T07:10:26.750Z,21.90
2017-12-12T07:11:27.656Z,32.90
2017-12-12T07:12:27.699Z,33.80
2017-12-12T07:13:26.740Z,30.90
2017-12-12T07:14:26.898Z,36.30
2017-12-12T07:15:26.887Z,34.00
2017-12-12T07:16:27.101Z,36.50
2017-12-12T07:17:27.176Z,29.70
2017-12-12T07:18:27.265Z,33.60
2017-12-12T07:19:27.503Z,28.60
2017-12-12T07:20:27.536Z,41.20
2017-12-12T07:21:51.790Z,25.60
2017-12-12T07:22:51.873Z,31.10
2017-12-12T07:23:51.983Z,31.40
2017-12-12T07:24:52.247Z,34.80
2017-12-12T07:25:51.386Z,34.70
2017-12-12T07:26:51.528Z,37.80
2017-12-12T07:27:51.701Z,34.40
2017-12-12T07:28:51.875Z,33.80
2017-12-12T07:29:51.921Z,36.10
2017-12-12T07:30:52.117Z,30.30
2017-12-12T07:31:52.157Z,38.70
2017-12-12T07:32:52.246Z,29.80
2017-12-12T07:33:52.254Z,37.80
2017-12-12T07:34:51.309Z,34.80
2017-12-12T07:35:51.635Z,34.10
2017-12-12T07:36:51.811Z,37.70
2017-12-12T07:37:51.987Z,32.40
2017-12-12T07:38:52.078Z,32.00
2017-12-12T07:39:52.098Z,30.20
2017-12-12T07:40:52.156Z,30.40
2017-12-12T07:41:52.150Z,31.00
2017-12-12T07:42:52.238Z,27.80
2017-12-12T07:43:52.212Z,33.90
2017-12-12T07:44:52.235Z,28.60
2017-12-12T07:45:51.571Z,31.70
2017-12-12T07:46:51.597Z,29.40
2017-12-12T07:47:51.809Z,25.70
2017-12-12T07:48:52.011Z,32.40
2017-12-12T07:49:52.088Z,34.80
2017-12-12T07:50:52.320Z,27.40
2017-12-12T07:51:52.419Z,23.80
2017-12-12T07:52:51.608Z,26.70
2017-12-12T07:53:51.577Z,29.50
2017-12-12T07:54:51.859Z,29.20
2017-12-12T07:55:51.985Z,31.00
2017-12-12T07:56:52.357Z,31.40
2017-12-12T07:57:51.513Z,26.70
2017-12-12T07:58:51.695Z,29.00
2017-12-12T07:59:51.911Z,26.80
2017-12-12T08:00:52.209Z,27.80
2017-12-12T08:01:51.429Z,30.60
2017-12-12T08:02:51.551Z,25.40
2017-12-12T08:03:51.892Z,25.80
2017-12-12T08:04:52.049Z,35.30
2017-12-12T08:05:52.312Z,30.20
2017-12-12T08:06:51.685Z,26.30
2017-12-12T08:07:51.895Z,24.90
2017-12-12T08:08:51.972Z,25.80
2017-12-12T08:09:52.202Z,28.10
2017-12-12T08:10:52.332Z,24.80
2017-12-12T08:12:41.773Z,30.40
2017-12-12T08:13:42.026Z,32.40
2017-12-12T08:14:42.214Z,28.30
2017-12-12T08:15:42.470Z,26.60
2017-12-12T08:16:42.643Z,29.50
2017-12-12T08:17:41.947Z,31.90
2017-12-12T08:18:42.239Z,27.80
2017-12-12T08:20:07.277Z,20.40
2017-12-12T08:21:07.479Z,24.60
2017-12-12T08:22:07.591Z,26.20
2017-12-12T08:23:07.861Z,25.70
2017-12-12T08:24:08.005Z,26.60
2017-12-12T08:25:08.157Z,28.10
2017-12-12T08:26:07.409Z,19.80
2017-12-12T08:27:07.678Z,25.50
2017-12-12T08:28:08.108Z,24.40
2017-12-12T08:29:07.395Z,23.90
2017-12-12T08:30:07.511Z,24.90
2017-12-12T08:31:07.915Z,23.50
2017-12-12T08:32:08.345Z,25.10
2017-12-12T08:33:07.574Z,21.60
2017-12-12T08:34:07.940Z,22.60
2017-12-12T08:35:32.540Z,21.60
2017-12-12T08:36:32.885Z,21.50
2017-12-12T08:37:33.279Z,20.10
2017-12-12T08:38:32.682Z,20.20
2017-12-12T08:39:33.086Z,20.20
2017-12-12T08:40:33.504Z,17.90
2017-12-12T08:41:32.841Z,25.30
2017-12-12T08:42:33.098Z,18.20
2017-12-12T08:43:33.444Z,25.60
2017-12-12T08:44:32.773Z,18.40
2017-12-12T08:45:33.123Z,17.40
2017-12-12T08:46:33.325Z,24.10
2017-12-12T08:47:32.500Z,19.70
2017-12-12T08:48:32.833Z,22.00
2017-12-12T08:49:33.257Z,25.30
2017-12-12T08:50:33.437Z,21.50
2017-12-12T08:51:32.897Z,18.90
2017-12-12T08:52:33.224Z,20.80
2017-12-12T08:53:32.671Z,21.90
2017-12-12T08:54:33.132Z,17.60
2017-12-12T08:55:33.469Z,17.30
2017-12-12T08:56:32.929Z,19.30
2017-12-12T08:57:33.548Z,19.80
2017-12-12T08:58:35.423Z,18.30
2017-12-12T08:59:32.681Z,18.40
2017-12-12T09:00:34.172Z,19.80
2017-12-12T09:01:33.423Z,20.50
2017-12-12T09:02:32.791Z,19.00
2017-12-12T09:03:33.262Z,18.10
2017-12-12T09:04:33.409Z,20.30
2017-12-12T09:05:32.792Z,17.50
2017-12-12T09:06:33.387Z,19.40
2017-12-12T09:07:32.655Z,19.00
2017-12-12T09:08:33.041Z,19.00
2017-12-12T09:09:33.368Z,21.40
2017-12-12T09:10:32.834Z,16.50
2017-12-12T09:11:33.597Z,17.60
2017-12-12T09:12:32.845Z,15.60
2017-12-12T09:13:33.168Z,17.40
2017-12-12T09:14:58.044Z,18.20
2017-12-12T09:15:59.187Z,12.00
2017-12-12T09:16:58.689Z,18.80
2017-12-12T09:17:58.971Z,17.40
2017-12-12T09:18:58.406Z,16.40
2017-12-12T09:19:58.873Z,18.50
2017-12-12T09:20:58.307Z,16.70
2017-12-12T09:21:58.750Z,14.80
2017-12-12T09:22:58.066Z,14.70
2017-12-12T09:23:58.348Z,20.10
2017-12-12T09:24:58.793Z,17.90
2017-12-12T09:25:58.247Z,18.60
2017-12-12T09:26:58.571Z,17.20
2017-12-12T09:27:58.764Z,18.70
2017-12-12T09:28:57.978Z,18.30
2017-12-12T09:29:58.225Z,20.20
2017-12-12T09:30:58.785Z,14.80
2017-12-12T09:31:58.108Z,14.40
2017-12-12T09:32:58.473Z,14.20
2017-12-12T09:33:59.073Z,11.20
2017-12-12T09:34:58.487Z,14.90
2017-12-12T09:35:58.750Z,15.00
2017-12-12T09:36:58.196Z,15.10
2017-12-12T09:37:58.701Z,15.20
2017-12-12T09:38:58.180Z,15.10
2017-12-12T09:39:58.530Z,16.50
2017-12-12T09:40:58.883Z,16.30
2017-12-12T09:41:58.397Z,13.50
2017-12-12T09:42:58.625Z,14.50
2017-12-12T09:43:58.854Z,17.50
2017-12-12T09:44:58.246Z,15.30
2017-12-12T09:45:58.621Z,14.50
2017-12-12T09:46:58.919Z,13.90
2017-12-12T09:47:58.325Z,16.40
2017-12-12T09:48:58.834Z,15.20
2017-12-12T09:49:58.329Z,13.10
2017-12-12T09:50:58.992Z,15.90
2017-12-12T09:51:59.196Z,19.40
2017-12-12T09:52:58.572Z,14.10
2017-12-12T09:53:58.017Z,18.10
2017-12-12T09:54:58.662Z,18.90
2017-12-12T09:55:58.068Z,17.20
2017-12-12T09:56:58.354Z,17.10
2017-12-12T09:57:58.530Z,17.50
2017-12-12T09:58:58.716Z,18.90
2017-12-12T09:59:58.023Z,17.20
2017-12-12T10:00:58.324Z,14.80
2017-12-12T10:01:58.583Z,20.50
2017-12-12T10:02:58.845Z,19.70
2017-12-12T10:03:58.132Z,25.10
2017-12-12T10:04:58.356Z,25.10
2017-12-12T10:05:58.650Z,25.20
2017-12-12T10:06:57.967Z,23.00
2017-12-12T10:07:58.312Z,27.60
2017-12-12T10:09:23.380Z,24.60
2017-12-12T10:10:48.521Z,24.60
2017-12-12T10:11:48.756Z,26.40
2017-12-12T10:12:48.878Z,29.90
2017-12-12T10:13:49.172Z,28.20
2017-12-12T10:14:49.438Z,31.60
2017-12-12T10:15:48.662Z,28.40
2017-12-12T10:16:48.894Z,34.10
2017-12-12T10:17:49.682Z,36.40
2017-12-12T10:18:49.431Z,32.50
2017-12-12T10:19:49.084Z,35.50
2017-12-12T10:20:49.402Z,31.10
2017-12-12T10:22:15.771Z,0.00
2017-12-12T10:23:16.095Z,34.80
2017-12-12T10:24:41.743Z,32.00
2017-12-12T10:25:42.692Z,28.50
2017-12-12T10:26:41.879Z,28.30
2017-12-12T10:27:42.101Z,25.20
2017-12-12T10:28:42.214Z,30.30
2017-12-12T10:29:42.570Z,32.50
2017-12-12T10:30:41.844Z,28.90
2017-12-12T10:31:42.072Z,29.70
2017-12-12T10:32:42.316Z,33.10
2017-12-12T10:33:42.608Z,28.50
2017-12-12T10:34:41.829Z,30.40
2017-12-12T10:35:42.027Z,26.30
2017-12-12T10:36:42.233Z,27.50
2017-12-12T10:37:42.538Z,22.30
2017-12-12T10:38:41.804Z,27.80
2017-12-12T10:39:41.999Z,25.80
2017-12-12T10:40:42.428Z,28.10
2017-12-12T10:41:42.829Z,26.50
2017-12-12T10:42:41.921Z,25.00
2017-12-12T10:43:42.206Z,21.30
2017-12-12T10:44:42.533Z,28.50
2017-12-12T10:45:41.849Z,30.20
2017-12-12T10:46:41.908Z,28.40
2017-12-12T10:47:42.286Z,28.30
2017-12-12T10:48:42.316Z,26.60
2017-12-12T10:49:42.669Z,20.90
2017-12-12T10:50:41.866Z,19.70
2017-12-12T10:51:41.905Z,21.00
2017-12-12T10:52:42.018Z,14.70
2017-12-12T10:53:42.197Z,19.80
2017-12-12T10:54:42.454Z,23.80
2017-12-12T10:55:42.593Z,22.20
2017-12-12T10:56:42.673Z,24.70
2017-12-12T10:57:41.769Z,24.90
2017-12-12T10:58:41.763Z,18.30
2017-12-12T10:59:42.387Z,15.90
2017-12-12T11:01:07.522Z,18.70
2017-12-12T11:02:07.743Z,22.00
2017-12-12T11:03:08.003Z,22.20
2017-12-12T11:04:08.330Z,16.10
2017-12-12T11:05:07.675Z,18.10
2017-12-12T11:06:08.137Z,22.80
2017-12-12T11:07:08.336Z,21.10
2017-12-12T11:08:08.384Z,20.90
2017-12-12T11:09:07.623Z,23.50
2017-12-12T11:10:08.094Z,20.80
2017-12-12T11:11:08.323Z,22.90
2017-12-12T11:12:07.491Z,19.10
2017-12-12T11:13:07.755Z,19.10
2017-12-12T11:14:08.184Z,21.70
2017-12-12T11:15:08.396Z,20.20
2017-12-12T11:16:07.924Z,19.90
2017-12-12T11:17:08.292Z,16.20
2017-12-12T11:18:07.537Z,15.90
2017-12-12T11:19:07.583Z,20.00
2017-12-12T11:20:07.843Z,18.80
2017-12-12T11:21:08.340Z,17.40
2017-12-12T11:22:07.624Z,18.80
2017-12-12T11:23:07.836Z,16.30
2017-12-12T11:24:08.064Z,14.00
2017-12-12T11:25:34.730Z,0.00
2017-12-12T11:26:59.903Z,13.60
2017-12-12T11:28:00.943Z,14.70
2017-12-12T11:29:00.131Z,10.00
2017-12-12T11:30:24.513Z,12.50
2017-12-12T11:31:24.603Z,11.90
2017-12-12T11:32:24.764Z,9.90
2017-12-12T11:33:24.877Z,13.10
2017-12-12T11:34:25.086Z,11.70
2017-12-12T11:35:25.311Z,12.70
2017-12-12T11:36:25.558Z,11.20
2017-12-12T11:37:24.773Z,13.60
2017-12-12T11:38:25.067Z,11.60
2017-12-12T11:39:25.273Z,9.60
2017-12-12T11:40:25.464Z,12.50
2017-12-12T11:41:48.649Z,11.70
2017-12-12T11:42:48.945Z,12.40
2017-12-12T11:43:49.195Z,10.80
2017-12-12T11:44:49.366Z,11.80
2017-12-12T11:46:14.317Z,12.60
2017-12-12T11:47:14.817Z,9.40
2017-12-12T11:48:15.173Z,9.70
2017-12-12T11:49:14.348Z,11.70
2017-12-12T11:50:14.515Z,9.50
2017-12-12T11:51:14.813Z,11.30
2017-12-12T11:52:14.923Z,11.00
2017-12-12T11:53:16.383Z,10.40
2017-12-12T11:54:14.595Z,12.50
2017-12-12T11:56:03.371Z,11.10
2017-12-12T11:57:03.778Z,11.30
2017-12-12T11:58:04.028Z,13.00
2017-12-12T11:59:04.320Z,12.20
2017-12-12T12:00:04.452Z,10.40
2017-12-12T12:01:03.787Z,8.00
2017-12-12T12:02:04.175Z,10.60
2017-12-12T12:03:05.376Z,9.40
2017-12-12T12:04:03.668Z,7.40
2017-12-12T12:05:03.857Z,9.90
2017-12-12T12:06:27.983Z,8.40
2017-12-12T12:07:28.128Z,9.90
2017-12-12T12:08:28.250Z,8.50
2017-12-12T12:09:29.418Z,8.10
2017-12-12T12:10:28.633Z,8.50
2017-12-12T12:11:28.963Z,12.60
2017-12-12T12:12:28.244Z,10.80
2017-12-12T12:13:28.650Z,10.70
2017-12-12T12:14:28.876Z,10.90
2017-12-12T12:15:28.262Z,12.30
2017-12-12T12:16:29.054Z,9.60
2017-12-12T12:17:28.985Z,8.70
2017-12-12T12:18:28.475Z,8.40
2017-12-12T12:19:30.054Z,7.90
2017-12-12T12:20:35.670Z,6.90
2017-12-12T12:22:07.432Z,7.10
2017-12-12T12:23:04.930Z,7.10
2017-12-12T12:24:04.325Z,5.80
2017-12-12T12:25:04.585Z,6.50
2017-12-12T12:26:03.832Z,6.00
2017-12-12T12:27:04.354Z,6.40
2017-12-12T12:28:04.649Z,6.50
2017-12-12T12:29:03.824Z,8.20
2017-12-12T12:30:04.939Z,5.90
2017-12-12T12:31:04.056Z,5.20
2017-12-12T12:32:04.217Z,6.10
2017-12-12T12:33:03.478Z,6.80
2017-12-12T12:34:03.642Z,5.00
2017-12-12T12:35:04.456Z,5.30
2017-12-12T12:36:03.778Z,5.30
2017-12-12T12:37:03.968Z,5.00
2017-12-12T12:38:04.192Z,5.90
2017-12-12T12:39:04.238Z,5.80
2017-12-12T12:40:04.489Z,7.00
2017-12-12T12:41:03.631Z,6.60
2017-12-12T12:42:03.837Z,5.40
2017-12-12T12:43:04.020Z,5.60
2017-12-12T12:44:04.261Z,5.80
2017-12-12T12:45:03.586Z,6.40
2017-12-12T12:46:03.946Z,6.30
2017-12-12T12:47:04.257Z,6.20
2017-12-12T12:48:04.292Z,7.40
2017-12-12T12:49:04.325Z,9.30
2017-12-12T12:50:03.545Z,8.90
2017-12-12T12:51:03.773Z,7.10
2017-12-12T12:52:03.864Z,7.80
2017-12-12T12:53:04.018Z,5.50
2017-12-12T12:54:04.355Z,5.90
2017-12-12T12:55:03.745Z,5.70
2017-12-12T12:56:03.899Z,4.70
2017-12-12T12:57:04.110Z,6.70
2017-12-12T12:58:04.322Z,6.70
2017-12-12T12:59:03.738Z,7.90
2017-12-12T13:00:03.934Z,7.40
2017-12-12T13:01:04.181Z,7.60
2017-12-12T13:02:04.327Z,8.50
2017-12-12T13:03:03.840Z,7.90
2017-12-12T13:04:04.122Z,7.70
2017-12-12T13:05:04.517Z,8.20
2017-12-12T13:06:03.980Z,8.60
2017-12-12T13:07:04.627Z,9.70
2017-12-12T13:08:03.863Z,9.10
2017-12-12T13:09:04.158Z,11.30
2017-12-12T13:10:04.229Z,10.70
2017-12-12T13:11:04.521Z,11.80
2017-12-12T13:12:03.843Z,12.00